sensor_id;sensor_type;location;lat;lon;timestamp;temperature;humidity
7708;DHT22;3896;48.758;8.888;2022-12-08T00:01:47;0.40;99.90
7708;DHT22;3896;48.758;8.888;2022-12-08T00:04:12;0.40;99.90
7708;DHT22;3896;48.758;8.888;2022-12-08T00:06:40;0.40;99.90
7708;DHT22;3896;48.758;8.888;2022-12-08T00:09:40;0.30;99.90
7708;DHT22;3896;48.758;8.888;2022-12-08T00:12:12;0.20;99.90
7708;DHT22;3896;48.758;8.888;2022-12-08T00:14:40;0.20;99.90
7708;DHT22;3896;48.758;8.888;2022-12-08T00:17:07;0.20;99.90
7708;DHT22;3896;48.758;8.888;2022-12-08T00:19:34;0.10;99.90
7708;DHT22;3896;48.758;8.888;2022-12-08T00:22:00;0.10;99.90
7708;DHT22;3896;48.758;8.888;2022-12-08T00:24:33;0.10;99.90
7708;DHT22;3896;48.758;8.888;2022-12-08T00:27:00;0.10;99.90
7708;DHT22;3896;48.758;8.888;2022-12-08T00:29:25;0.00;99.90
7708;DHT22;3896;48.758;8.888;2022-12-08T00:31:51;0.00;99.90
7708;DHT22;3896;48.758;8.888;2022-12-08T00:34:17;0.00;99.90
7708;DHT22;3896;48.758;8.888;2022-12-08T00:36:43;-0.10;99.90
7708;DHT22;3896;48.758;8.888;2022-12-08T00:39:10;-0.10;99.90
7708;DHT22;3896;48.758;8.888;2022-12-08T00:41:36;-0.20;99.90
7708;DHT22;3896;48.758;8.888;2022-12-08T00:44:20;-0.20;99.90
7708;DHT22;3896;48.758;8.888;2022-12-08T00:46:47;-0.20;99.90
7708;DHT22;3896;48.758;8.888;2022-12-08T00:49:13;-0.30;99.90
7708;DHT22;3896;48.758;8.888;2022-12-08T00:51:39;-0.30;99.90
7708;DHT22;3896;48.758;8.888;2022-12-08T00:54:05;-0.30;99.90
7708;DHT22;3896;48.758;8.888;2022-12-08T00:56:32;-0.30;99.90
7708;DHT22;3896;48.758;8.888;2022-12-08T00:58:58;-0.40;99.90
7708;DHT22;3896;48.758;8.888;2022-12-08T01:01:24;-0.40;99.90
7708;DHT22;3896;48.758;8.888;2022-12-08T01:03:50;-0.50;99.90
7708;DHT22;3896;48.758;8.888;2022-12-08T01:06:16;-0.50;99.90
7708;DHT22;3896;48.758;8.888;2022-12-08T01:08:41;-0.50;99.90
7708;DHT22;3896;48.758;8.888;2022-12-08T01:11:13;-0.50;99.90
7708;DHT22;3896;48.758;8.888;2022-12-08T01:13:39;-0.60;99.90
7708;DHT22;3896;48.758;8.888;2022-12-08T01:16:05;-0.60;99.90
7708;DHT22;3896;48.758;8.888;2022-12-08T01:18:31;-0.60;99.90
7708;DHT22;3896;48.758;8.888;2022-12-08T01:21:02;-0.70;99.90
7708;DHT22;3896;48.758;8.888;2022-12-08T01:23:28;-0.70;99.90
7708;DHT22;3896;48.758;8.888;2022-12-08T01:25:53;-0.70;99.90
7708;DHT22;3896;48.758;8.888;2022-12-08T01:28:19;-0.80;99.90
7708;DHT22;3896;48.758;8.888;2022-12-08T01:30:44;-0.80;99.90
7708;DHT22;3896;48.758;8.888;2022-12-08T01:33:10;-0.80;99.90
7708;DHT22;3896;48.758;8.888;2022-12-08T01:35:35;-0.90;99.90
7708;DHT22;3896;48.758;8.888;2022-12-08T01:38:01;-0.90;99.90
7708;DHT22;3896;48.758;8.888;2022-12-08T01:40:27;-0.90;99.90
7708;DHT22;3896;48.758;8.888;2022-12-08T01:42:52;-0.90;99.90
7708;DHT22;3896;48.758;8.888;2022-12-08T01:45:29;-1.00;99.90
7708;DHT22;3896;48.758;8.888;2022-12-08T01:48:02;-1.00;99.90
7708;DHT22;3896;48.758;8.888;2022-12-08T01:50:29;-1.00;99.90
7708;DHT22;3896;48.758;8.888;2022-12-08T01:53:20;-1.00;99.90
7708;DHT22;3896;48.758;8.888;2022-12-08T01:55:54;-1.10;99.90
7708;DHT22;3896;48.758;8.888;2022-12-08T01:58:31;-1.10;99.90
7708;DHT22;3896;48.758;8.888;2022-12-08T02:00:58;-1.20;99.90
7708;DHT22;3896;48.758;8.888;2022-12-08T02:03:40;-1.20;99.90
7708;DHT22;3896;48.758;8.888;2022-12-08T02:06:07;-1.20;99.90
7708;DHT22;3896;48.758;8.888;2022-12-08T02:08:34;-1.20;99.90
7708;DHT22;3896;48.758;8.888;2022-12-08T02:11:00;-1.20;99.90
7708;DHT22;3896;48.758;8.888;2022-12-08T02:13:26;-1.30;99.90
7708;DHT22;3896;48.758;8.888;2022-12-08T02:19:54;-1.30;99.90
7708;DHT22;3896;48.758;8.888;2022-12-08T02:32:25;-1.50;99.90
7708;DHT22;3896;48.758;8.888;2022-12-08T02:38:20;-1.60;99.90
7708;DHT22;3896;48.758;8.888;2022-12-08T02:41:01;-1.60;99.90
7708;DHT22;3896;48.758;8.888;2022-12-08T02:43:35;-1.60;99.90
7708;DHT22;3896;48.758;8.888;2022-12-08T02:46:15;-1.70;99.90
7708;DHT22;3896;48.758;8.888;2022-12-08T02:48:42;-1.70;99.90
7708;DHT22;3896;48.758;8.888;2022-12-08T02:51:08;-1.70;99.90
7708;DHT22;3896;48.758;8.888;2022-12-08T02:53:34;-1.70;99.90
7708;DHT22;3896;48.758;8.888;2022-12-08T02:56:29;-1.70;99.90
7708;DHT22;3896;48.758;8.888;2022-12-08T03:07:32;-1.80;99.90
7708;DHT22;3896;48.758;8.888;2022-12-08T03:10:11;-1.90;99.90
7708;DHT22;3896;48.758;8.888;2022-12-08T03:12:47;-1.90;99.90
7708;DHT22;3896;48.758;8.888;2022-12-08T03:15:17;-1.90;99.90
7708;DHT22;3896;48.758;8.888;2022-12-08T03:17:47;-1.90;99.90
7708;DHT22;3896;48.758;8.888;2022-12-08T03:20:17;-1.90;99.90
7708;DHT22;3896;48.758;8.888;2022-12-08T03:22:45;-1.90;99.90
7708;DHT22;3896;48.758;8.888;2022-12-08T03:25:13;-1.90;99.90
7708;DHT22;3896;48.758;8.888;2022-12-08T03:27:40;-2.00;99.90
7708;DHT22;3896;48.758;8.888;2022-12-08T03:30:06;-2.00;99.90
7708;DHT22;3896;48.758;8.888;2022-12-08T03:32:53;-2.00;99.90
7708;DHT22;3896;48.758;8.888;2022-12-08T03:35:25;-2.00;99.90
7708;DHT22;3896;48.758;8.888;2022-12-08T03:40:29;-2.00;99.90
7708;DHT22;3896;48.758;8.888;2022-12-08T03:42:54;-2.10;99.90
7708;DHT22;3896;48.758;8.888;2022-12-08T03:45:20;-2.00;99.90
7708;DHT22;3896;48.758;8.888;2022-12-08T03:47:46;-2.10;99.90
7708;DHT22;3896;48.758;8.888;2022-12-08T03:50:12;-2.10;99.90
7708;DHT22;3896;48.758;8.888;2022-12-08T03:52:37;-2.10;99.90
7708;DHT22;3896;48.758;8.888;2022-12-08T03:55:03;-2.10;99.90
7708;DHT22;3896;48.758;8.888;2022-12-08T03:57:29;-2.10;99.90
7708;DHT22;3896;48.758;8.888;2022-12-08T03:59:54;-2.10;99.90
7708;DHT22;3896;48.758;8.888;2022-12-08T04:02:20;-2.20;99.90
7708;DHT22;3896;48.758;8.888;2022-12-08T04:04:45;-2.20;99.90
7708;DHT22;3896;48.758;8.888;2022-12-08T04:07:11;-2.20;99.90
7708;DHT22;3896;48.758;8.888;2022-12-08T04:09:37;-2.20;99.90
7708;DHT22;3896;48.758;8.888;2022-12-08T04:12:03;-2.20;99.90
7708;DHT22;3896;48.758;8.888;2022-12-08T04:14:29;-2.20;99.90
7708;DHT22;3896;48.758;8.888;2022-12-08T04:16:54;-2.30;99.90
7708;DHT22;3896;48.758;8.888;2022-12-08T04:19:20;-2.30;99.90
7708;DHT22;3896;48.758;8.888;2022-12-08T04:21:46;-2.30;99.90
7708;DHT22;3896;48.758;8.888;2022-12-08T04:24:11;-2.30;99.90
7708;DHT22;3896;48.758;8.888;2022-12-08T04:26:37;-2.30;99.90
7708;DHT22;3896;48.758;8.888;2022-12-08T04:29:02;-2.40;99.90
7708;DHT22;3896;48.758;8.888;2022-12-08T04:31:28;-2.40;99.90
7708;DHT22;3896;48.758;8.888;2022-12-08T04:33:54;-2.40;99.90
7708;DHT22;3896;48.758;8.888;2022-12-08T04:36:19;-2.40;99.90
7708;DHT22;3896;48.758;8.888;2022-12-08T04:38:45;-2.50;99.90
7708;DHT22;3896;48.758;8.888;2022-12-08T04:41:10;-2.50;99.90
7708;DHT22;3896;48.758;8.888;2022-12-08T04:43:36;-2.50;99.90
7708;DHT22;3896;48.758;8.888;2022-12-08T04:46:05;-2.50;99.90
7708;DHT22;3896;48.758;8.888;2022-12-08T04:48:31;-2.50;99.90
7708;DHT22;3896;48.758;8.888;2022-12-08T04:50:56;-2.50;99.90
7708;DHT22;3896;48.758;8.888;2022-12-08T04:53:22;-2.50;99.90
7708;DHT22;3896;48.758;8.888;2022-12-08T04:55:48;-2.50;99.90
7708;DHT22;3896;48.758;8.888;2022-12-08T04:58:16;-2.50;99.90
7708;DHT22;3896;48.758;8.888;2022-12-08T05:00:42;-2.60;99.90
7708;DHT22;3896;48.758;8.888;2022-12-08T05:03:08;-2.60;99.90
7708;DHT22;3896;48.758;8.888;2022-12-08T05:05:34;-2.60;99.90
7708;DHT22;3896;48.758;8.888;2022-12-08T05:08:00;-2.60;99.90
7708;DHT22;3896;48.758;8.888;2022-12-08T05:10:25;-2.60;99.90
7708;DHT22;3896;48.758;8.888;2022-12-08T05:12:51;-2.60;99.90
7708;DHT22;3896;48.758;8.888;2022-12-08T05:15:17;-2.70;99.90
7708;DHT22;3896;48.758;8.888;2022-12-08T05:17:42;-2.70;99.90
7708;DHT22;3896;48.758;8.888;2022-12-08T05:20:09;-2.70;99.90
7708;DHT22;3896;48.758;8.888;2022-12-08T05:22:34;-2.70;99.90
7708;DHT22;3896;48.758;8.888;2022-12-08T05:25:00;-2.80;99.90
7708;DHT22;3896;48.758;8.888;2022-12-08T05:27:26;-2.80;99.90
7708;DHT22;3896;48.758;8.888;2022-12-08T05:29:51;-2.80;99.90
7708;DHT22;3896;48.758;8.888;2022-12-08T05:32:17;-2.80;99.90
7708;DHT22;3896;48.758;8.888;2022-12-08T05:34:43;-2.80;99.90
7708;DHT22;3896;48.758;8.888;2022-12-08T05:37:08;-2.80;99.90
7708;DHT22;3896;48.758;8.888;2022-12-08T05:39:34;-2.90;99.90
7708;DHT22;3896;48.758;8.888;2022-12-08T05:42:00;-2.90;99.90
7708;DHT22;3896;48.758;8.888;2022-12-08T05:44:25;-2.90;99.90
7708;DHT22;3896;48.758;8.888;2022-12-08T05:46:51;-2.90;99.90
7708;DHT22;3896;48.758;8.888;2022-12-08T05:49:17;-3.00;99.90
7708;DHT22;3896;48.758;8.888;2022-12-08T05:51:43;-2.90;99.90
7708;DHT22;3896;48.758;8.888;2022-12-08T05:54:09;-3.00;99.90
7708;DHT22;3896;48.758;8.888;2022-12-08T05:56:34;-3.00;99.90
7708;DHT22;3896;48.758;8.888;2022-12-08T05:59:00;-3.00;99.90
7708;DHT22;3896;48.758;8.888;2022-12-08T06:01:30;-3.00;99.90
7708;DHT22;3896;48.758;8.888;2022-12-08T06:03:57;-3.10;99.90
7708;DHT22;3896;48.758;8.888;2022-12-08T06:06:23;-3.10;99.90
7708;DHT22;3896;48.758;8.888;2022-12-08T06:08:49;-3.10;99.90
7708;DHT22;3896;48.758;8.888;2022-12-08T06:11:20;-3.10;99.90
7708;DHT22;3896;48.758;8.888;2022-12-08T06:13:45;-3.10;99.90
7708;DHT22;3896;48.758;8.888;2022-12-08T06:16:11;-3.10;99.90
7708;DHT22;3896;48.758;8.888;2022-12-08T06:18:37;-3.10;99.90
7708;DHT22;3896;48.758;8.888;2022-12-08T06:21:08;-3.10;99.90
7708;DHT22;3896;48.758;8.888;2022-12-08T06:23:35;-3.10;99.90
7708;DHT22;3896;48.758;8.888;2022-12-08T06:26:02;-3.20;99.90
7708;DHT22;3896;48.758;8.888;2022-12-08T06:28:29;-3.20;99.90
7708;DHT22;3896;48.758;8.888;2022-12-08T06:30:54;-3.20;99.90
7708;DHT22;3896;48.758;8.888;2022-12-08T06:33:20;-3.20;99.90
7708;DHT22;3896;48.758;8.888;2022-12-08T06:35:46;-3.20;99.90
7708;DHT22;3896;48.758;8.888;2022-12-08T06:38:11;-3.20;99.90
7708;DHT22;3896;48.758;8.888;2022-12-08T06:40:37;-3.20;99.90
7708;DHT22;3896;48.758;8.888;2022-12-08T06:43:03;-3.20;99.90
7708;DHT22;3896;48.758;8.888;2022-12-08T06:45:28;-3.20;99.90
7708;DHT22;3896;48.758;8.888;2022-12-08T06:47:54;-3.30;99.90
7708;DHT22;3896;48.758;8.888;2022-12-08T06:50:19;-3.30;99.90
7708;DHT22;3896;48.758;8.888;2022-12-08T06:52:45;-3.30;99.90
7708;DHT22;3896;48.758;8.888;2022-12-08T06:55:11;-3.30;99.90
7708;DHT22;3896;48.758;8.888;2022-12-08T06:57:36;-3.30;99.90
7708;DHT22;3896;48.758;8.888;2022-12-08T07:00:04;-3.30;99.90
7708;DHT22;3896;48.758;8.888;2022-12-08T07:02:30;-3.30;99.90
7708;DHT22;3896;48.758;8.888;2022-12-08T07:04:55;-2.90;99.90
7708;DHT22;3896;48.758;8.888;2022-12-08T07:07:21;-3.00;99.90
7708;DHT22;3896;48.758;8.888;2022-12-08T07:09:47;-3.10;99.90
7708;DHT22;3896;48.758;8.888;2022-12-08T07:12:12;-3.10;99.90
7708;DHT22;3896;48.758;8.888;2022-12-08T07:14:38;-3.20;99.90
7708;DHT22;3896;48.758;8.888;2022-12-08T07:17:03;-3.20;99.90
7708;DHT22;3896;48.758;8.888;2022-12-08T07:19:29;-3.20;99.90
7708;DHT22;3896;48.758;8.888;2022-12-08T07:21:55;-3.30;99.90
7708;DHT22;3896;48.758;8.888;2022-12-08T07:24:20;-3.30;99.90
7708;DHT22;3896;48.758;8.888;2022-12-08T07:26:46;-3.30;99.90
7708;DHT22;3896;48.758;8.888;2022-12-08T07:29:12;-3.30;99.90
7708;DHT22;3896;48.758;8.888;2022-12-08T07:31:37;-3.30;99.90
7708;DHT22;3896;48.758;8.888;2022-12-08T07:34:03;-3.40;99.90
7708;DHT22;3896;48.758;8.888;2022-12-08T07:36:29;-3.40;99.90
7708;DHT22;3896;48.758;8.888;2022-12-08T07:38:54;-3.40;99.90
7708;DHT22;3896;48.758;8.888;2022-12-08T07:41:23;-3.40;99.90
7708;DHT22;3896;48.758;8.888;2022-12-08T07:43:49;-3.40;99.90
7708;DHT22;3896;48.758;8.888;2022-12-08T07:46:17;-3.40;99.90
7708;DHT22;3896;48.758;8.888;2022-12-08T07:48:43;-3.40;99.90
7708;DHT22;3896;48.758;8.888;2022-12-08T07:51:11;-3.40;99.90
7708;DHT22;3896;48.758;8.888;2022-12-08T07:53:39;-3.40;99.90
7708;DHT22;3896;48.758;8.888;2022-12-08T07:56:05;-3.40;99.90
7708;DHT22;3896;48.758;8.888;2022-12-08T07:58:31;-3.40;99.90
7708;DHT22;3896;48.758;8.888;2022-12-08T08:00:56;-3.40;99.90
7708;DHT22;3896;48.758;8.888;2022-12-08T08:03:22;-3.40;99.90
7708;DHT22;3896;48.758;8.888;2022-12-08T08:05:48;-3.30;99.90
7708;DHT22;3896;48.758;8.888;2022-12-08T08:08:15;-3.30;99.90
7708;DHT22;3896;48.758;8.888;2022-12-08T08:10:42;-3.30;99.90
7708;DHT22;3896;48.758;8.888;2022-12-08T08:13:08;-3.30;99.90
7708;DHT22;3896;48.758;8.888;2022-12-08T08:15:34;-3.20;99.90
7708;DHT22;3896;48.758;8.888;2022-12-08T08:18:00;-3.20;99.90
7708;DHT22;3896;48.758;8.888;2022-12-08T08:20:26;-3.20;99.90
7708;DHT22;3896;48.758;8.888;2022-12-08T08:22:51;-3.10;99.90
7708;DHT22;3896;48.758;8.888;2022-12-08T08:25:18;-3.10;99.90
7708;DHT22;3896;48.758;8.888;2022-12-08T08:27:46;-3.10;99.90
7708;DHT22;3896;48.758;8.888;2022-12-08T08:30:13;-3.00;99.90
7708;DHT22;3896;48.758;8.888;2022-12-08T08:32:39;-3.00;99.90
7708;DHT22;3896;48.758;8.888;2022-12-08T08:35:05;-3.00;99.90
7708;DHT22;3896;48.758;8.888;2022-12-08T08:37:31;-2.90;99.90
7708;DHT22;3896;48.758;8.888;2022-12-08T08:39:56;-2.90;99.90
7708;DHT22;3896;48.758;8.888;2022-12-08T08:42:22;-2.90;99.90
7708;DHT22;3896;48.758;8.888;2022-12-08T08:44:48;-2.80;99.90
7708;DHT22;3896;48.758;8.888;2022-12-08T08:47:14;-2.80;99.90
7708;DHT22;3896;48.758;8.888;2022-12-08T08:49:40;-2.70;99.90
7708;DHT22;3896;48.758;8.888;2022-12-08T08:52:05;-2.70;99.90
7708;DHT22;3896;48.758;8.888;2022-12-08T08:54:31;-2.60;99.90
7708;DHT22;3896;48.758;8.888;2022-12-08T08:56:58;-2.60;99.90
7708;DHT22;3896;48.758;8.888;2022-12-08T08:59:25;-2.50;99.90
7708;DHT22;3896;48.758;8.888;2022-12-08T09:01:51;-2.40;99.90
7708;DHT22;3896;48.758;8.888;2022-12-08T09:04:17;-2.40;99.90
7708;DHT22;3896;48.758;8.888;2022-12-08T09:06:43;-2.30;99.90
7708;DHT22;3896;48.758;8.888;2022-12-08T09:09:10;-2.30;99.90
7708;DHT22;3896;48.758;8.888;2022-12-08T09:11:36;-2.20;99.90
7708;DHT22;3896;48.758;8.888;2022-12-08T09:14:02;-2.10;99.90
7708;DHT22;3896;48.758;8.888;2022-12-08T09:16:28;-2.10;99.90
7708;DHT22;3896;48.758;8.888;2022-12-08T09:18:53;-2.00;99.90
7708;DHT22;3896;48.758;8.888;2022-12-08T09:21:22;-1.90;99.90
7708;DHT22;3896;48.758;8.888;2022-12-08T09:23:50;-1.80;99.90
7708;DHT22;3896;48.758;8.888;2022-12-08T09:26:15;-1.80;99.90
7708;DHT22;3896;48.758;8.888;2022-12-08T09:28:41;-1.70;99.90
7708;DHT22;3896;48.758;8.888;2022-12-08T09:31:12;-1.60;99.90
7708;DHT22;3896;48.758;8.888;2022-12-08T09:33:38;-1.50;99.90
7708;DHT22;3896;48.758;8.888;2022-12-08T09:36:04;-1.40;99.90
7708;DHT22;3896;48.758;8.888;2022-12-08T09:38:30;-1.30;99.90
7708;DHT22;3896;48.758;8.888;2022-12-08T09:40:56;-1.10;99.90
7708;DHT22;3896;48.758;8.888;2022-12-08T09:43:56;-1.00;99.90
7708;DHT22;3896;48.758;8.888;2022-12-08T09:46:26;-0.90;99.90
7708;DHT22;3896;48.758;8.888;2022-12-08T09:48:55;-0.80;99.90
7708;DHT22;3896;48.758;8.888;2022-12-08T09:51:26;-0.70;99.90
7708;DHT22;3896;48.758;8.888;2022-12-08T09:54:00;-0.50;99.90
7708;DHT22;3896;48.758;8.888;2022-12-08T09:56:31;-0.40;99.90
7708;DHT22;3896;48.758;8.888;2022-12-08T10:01:32;-0.10;99.90
7708;DHT22;3896;48.758;8.888;2022-12-08T10:03:58;0.10;99.90
7708;DHT22;3896;48.758;8.888;2022-12-08T10:06:43;0.20;99.90
7708;DHT22;3896;48.758;8.888;2022-12-08T10:15:02;0.80;99.90
7708;DHT22;3896;48.758;8.888;2022-12-08T10:17:49;0.90;99.90
7708;DHT22;3896;48.758;8.888;2022-12-08T10:20:19;1.10;99.90
7708;DHT22;3896;48.758;8.888;2022-12-08T10:22:49;1.30;99.90
7708;DHT22;3896;48.758;8.888;2022-12-08T10:25:22;1.50;99.90
7708;DHT22;3896;48.758;8.888;2022-12-08T10:27:53;1.60;99.90
7708;DHT22;3896;48.758;8.888;2022-12-08T10:30:20;1.80;99.90
7708;DHT22;3896;48.758;8.888;2022-12-08T10:32:51;1.90;99.90
7708;DHT22;3896;48.758;8.888;2022-12-08T10:35:19;2.10;99.90
7708;DHT22;3896;48.758;8.888;2022-12-08T10:38:00;2.20;99.90
7708;DHT22;3896;48.758;8.888;2022-12-08T10:40:28;2.40;99.90
7708;DHT22;3896;48.758;8.888;2022-12-08T10:42:58;2.50;99.90
7708;DHT22;3896;48.758;8.888;2022-12-08T10:50:31;2.80;99.90
7708;DHT22;3896;48.758;8.888;2022-12-08T10:52:59;2.90;99.90
7708;DHT22;3896;48.758;8.888;2022-12-08T10:55:25;3.00;99.90
7708;DHT22;3896;48.758;8.888;2022-12-08T10:57:51;3.00;99.90
7708;DHT22;3896;48.758;8.888;2022-12-08T11:00:20;3.10;99.90
7708;DHT22;3896;48.758;8.888;2022-12-08T11:02:54;3.20;99.90
7708;DHT22;3896;48.758;8.888;2022-12-08T11:05:23;3.40;99.90
7708;DHT22;3896;48.758;8.888;2022-12-08T11:07:52;3.50;99.90
7708;DHT22;3896;48.758;8.888;2022-12-08T11:10:20;3.70;99.90
7708;DHT22;3896;48.758;8.888;2022-12-08T11:12:51;3.80;99.90
7708;DHT22;3896;48.758;8.888;2022-12-08T11:15:17;4.00;99.90
7708;DHT22;3896;48.758;8.888;2022-12-08T11:17:43;4.10;99.90
7708;DHT22;3896;48.758;8.888;2022-12-08T11:22:42;4.30;99.90
7708;DHT22;3896;48.758;8.888;2022-12-08T11:25:17;4.40;99.90
7708;DHT22;3896;48.758;8.888;2022-12-08T11:27:56;4.50;99.90
7708;DHT22;3896;48.758;8.888;2022-12-08T11:30:24;4.50;99.90
7708;DHT22;3896;48.758;8.888;2022-12-08T11:33:05;4.60;99.90
7708;DHT22;3896;48.758;8.888;2022-12-08T11:35:39;4.60;99.90
7708;DHT22;3896;48.758;8.888;2022-12-08T11:38:18;4.70;99.90
7708;DHT22;3896;48.758;8.888;2022-12-08T11:41:07;4.70;99.90
7708;DHT22;3896;48.758;8.888;2022-12-08T11:46:04;4.80;99.90
7708;DHT22;3896;48.758;8.888;2022-12-08T11:48:43;4.80;99.90
7708;DHT22;3896;48.758;8.888;2022-12-08T11:51:11;4.80;99.90
7708;DHT22;3896;48.758;8.888;2022-12-08T11:56:46;4.90;99.90
7708;DHT22;3896;48.758;8.888;2022-12-08T12:01:58;4.90;99.90
7708;DHT22;3896;48.758;8.888;2022-12-08T12:04:32;4.90;99.90
7708;DHT22;3896;48.758;8.888;2022-12-08T12:07:23;4.90;99.90
7708;DHT22;3896;48.758;8.888;2022-12-08T12:18:16;5.00;99.90
7708;DHT22;3896;48.758;8.888;2022-12-08T12:20:56;5.00;99.90
7708;DHT22;3896;48.758;8.888;2022-12-08T12:23:39;5.00;99.90
7708;DHT22;3896;48.758;8.888;2022-12-08T12:26:07;5.00;99.90
7708;DHT22;3896;48.758;8.888;2022-12-08T12:31:40;5.00;99.90
7708;DHT22;3896;48.758;8.888;2022-12-08T12:34:23;5.00;99.90
7708;DHT22;3896;48.758;8.888;2022-12-08T12:36:53;5.00;99.90
7708;DHT22;3896;48.758;8.888;2022-12-08T12:39:24;5.00;99.90
7708;DHT22;3896;48.758;8.888;2022-12-08T12:41:58;5.10;99.90
7708;DHT22;3896;48.758;8.888;2022-12-08T12:46:55;5.10;99.70
7708;DHT22;3896;48.758;8.888;2022-12-08T13:05:21;5.30;98.70
7708;DHT22;3896;48.758;8.888;2022-12-08T13:07:55;5.30;99.00
7708;DHT22;3896;48.758;8.888;2022-12-08T13:10:37;5.30;98.80
7708;DHT22;3896;48.758;8.888;2022-12-08T13:13:16;5.30;98.70
7708;DHT22;3896;48.758;8.888;2022-12-08T13:15:55;5.40;98.50
7708;DHT22;3896;48.758;8.888;2022-12-08T13:18:33;5.40;98.20
7708;DHT22;3896;48.758;8.888;2022-12-08T13:21:20;5.50;98.10
7708;DHT22;3896;48.758;8.888;2022-12-08T13:29:29;5.50;98.10
7708;DHT22;3896;48.758;8.888;2022-12-08T13:31:59;5.50;97.60
7708;DHT22;3896;48.758;8.888;2022-12-08T13:34:47;5.60;97.40
7708;DHT22;3896;48.758;8.888;2022-12-08T13:39:51;5.60;97.30
7708;DHT22;3896;48.758;8.888;2022-12-08T13:42:28;5.50;96.60
7708;DHT22;3896;48.758;8.888;2022-12-08T13:47:37;5.60;96.30
7708;DHT22;3896;48.758;8.888;2022-12-08T13:52:44;5.50;95.90
7708;DHT22;3896;48.758;8.888;2022-12-08T13:55:18;5.50;95.80
7708;DHT22;3896;48.758;8.888;2022-12-08T13:57:47;5.50;95.70
7708;DHT22;3896;48.758;8.888;2022-12-08T14:00:17;5.50;95.30
7708;DHT22;3896;48.758;8.888;2022-12-08T14:02:48;5.50;95.20
7708;DHT22;3896;48.758;8.888;2022-12-08T14:05:16;5.50;95.00
7708;DHT22;3896;48.758;8.888;2022-12-08T14:07:42;5.50;94.80
7708;DHT22;3896;48.758;8.888;2022-12-08T14:10:34;5.40;94.70
7708;DHT22;3896;48.758;8.888;2022-12-08T14:13:04;5.40;94.50
7708;DHT22;3896;48.758;8.888;2022-12-08T14:15:34;5.40;94.70
7708;DHT22;3896;48.758;8.888;2022-12-08T14:18:00;5.40;94.20
7708;DHT22;3896;48.758;8.888;2022-12-08T14:20:30;5.40;94.30
7708;DHT22;3896;48.758;8.888;2022-12-08T14:22:57;5.30;94.60
7708;DHT22;3896;48.758;8.888;2022-12-08T14:25:28;5.40;94.70
7708;DHT22;3896;48.758;8.888;2022-12-08T14:28:02;5.30;94.70
7708;DHT22;3896;48.758;8.888;2022-12-08T14:30:32;5.30;94.70
7708;DHT22;3896;48.758;8.888;2022-12-08T14:33:00;5.30;94.60
7708;DHT22;3896;48.758;8.888;2022-12-08T14:35:36;5.30;94.70
7708;DHT22;3896;48.758;8.888;2022-12-08T14:38:14;5.20;94.90
7708;DHT22;3896;48.758;8.888;2022-12-08T14:40:41;5.20;95.00
7708;DHT22;3896;48.758;8.888;2022-12-08T14:59:20;5.00;95.90
7708;DHT22;3896;48.758;8.888;2022-12-08T15:01:49;5.00;96.10
7708;DHT22;3896;48.758;8.888;2022-12-08T15:04:23;5.00;96.40
7708;DHT22;3896;48.758;8.888;2022-12-08T15:07:04;4.90;96.60
7708;DHT22;3896;48.758;8.888;2022-12-08T15:09:48;4.90;96.80
7708;DHT22;3896;48.758;8.888;2022-12-08T15:14:55;4.90;97.00
7708;DHT22;3896;48.758;8.888;2022-12-08T15:19:59;4.80;96.90
7708;DHT22;3896;48.758;8.888;2022-12-08T15:22:26;4.70;96.80
7708;DHT22;3896;48.758;8.888;2022-12-08T15:24:53;4.70;96.50
7708;DHT22;3896;48.758;8.888;2022-12-08T15:27:20;4.70;96.50
7708;DHT22;3896;48.758;8.888;2022-12-08T15:29:47;5.10;93.70
7708;DHT22;3896;48.758;8.888;2022-12-08T15:32:16;5.00;93.80
7708;DHT22;3896;48.758;8.888;2022-12-08T15:34:43;4.90;93.80
7708;DHT22;3896;48.758;8.888;2022-12-08T15:39:43;4.70;94.10
7708;DHT22;3896;48.758;8.888;2022-12-08T15:42:10;4.70;94.10
7708;DHT22;3896;48.758;8.888;2022-12-08T15:44:37;4.70;94.20
7708;DHT22;3896;48.758;8.888;2022-12-08T15:47:03;4.60;94.20
7708;DHT22;3896;48.758;8.888;2022-12-08T15:49:29;5.00;95.30
7708;DHT22;3896;48.758;8.888;2022-12-08T15:51:54;4.80;95.20
7708;DHT22;3896;48.758;8.888;2022-12-08T15:54:20;4.80;94.90
7708;DHT22;3896;48.758;8.888;2022-12-08T15:56:49;4.70;94.50
7708;DHT22;3896;48.758;8.888;2022-12-08T15:59:18;4.60;94.30
7708;DHT22;3896;48.758;8.888;2022-12-08T16:01:44;4.60;94.20
7708;DHT22;3896;48.758;8.888;2022-12-08T16:04:14;4.50;94.20
7708;DHT22;3896;48.758;8.888;2022-12-08T16:06:43;4.40;94.20
7708;DHT22;3896;48.758;8.888;2022-12-08T16:09:18;4.40;94.20
7708;DHT22;3896;48.758;8.888;2022-12-08T16:11:45;4.30;94.20
7708;DHT22;3896;48.758;8.888;2022-12-08T16:14:29;4.30;94.30
7708;DHT22;3896;48.758;8.888;2022-12-08T16:16:54;4.20;94.40
7708;DHT22;3896;48.758;8.888;2022-12-08T16:19:20;4.20;94.60
7708;DHT22;3896;48.758;8.888;2022-12-08T16:21:46;4.20;94.80
7708;DHT22;3896;48.758;8.888;2022-12-08T16:24:11;4.10;94.90
7708;DHT22;3896;48.758;8.888;2022-12-08T16:26:37;4.10;94.90
7708;DHT22;3896;48.758;8.888;2022-12-08T16:29:03;4.10;94.90
7708;DHT22;3896;48.758;8.888;2022-12-08T16:31:29;4.00;94.90
7708;DHT22;3896;48.758;8.888;2022-12-08T16:33:55;4.00;94.90
7708;DHT22;3896;48.758;8.888;2022-12-08T16:36:21;3.90;95.00
7708;DHT22;3896;48.758;8.888;2022-12-08T16:38:46;3.90;95.00
7708;DHT22;3896;48.758;8.888;2022-12-08T16:41:13;3.90;95.10
7708;DHT22;3896;48.758;8.888;2022-12-08T16:44:03;3.90;95.30
7708;DHT22;3896;48.758;8.888;2022-12-08T16:46:29;3.80;95.50
7708;DHT22;3896;48.758;8.888;2022-12-08T16:48:55;3.80;95.70
7708;DHT22;3896;48.758;8.888;2022-12-08T16:51:23;3.80;95.80
7708;DHT22;3896;48.758;8.888;2022-12-08T16:53:49;3.70;96.00
7708;DHT22;3896;48.758;8.888;2022-12-08T16:56:16;3.70;96.20
7708;DHT22;3896;48.758;8.888;2022-12-08T16:58:50;3.70;96.20
7708;DHT22;3896;48.758;8.888;2022-12-08T17:01:17;3.60;96.20
7708;DHT22;3896;48.758;8.888;2022-12-08T17:03:43;3.60;96.30
7708;DHT22;3896;48.758;8.888;2022-12-08T17:06:10;3.60;96.40
7708;DHT22;3896;48.758;8.888;2022-12-08T17:08:37;3.60;96.50
7708;DHT22;3896;48.758;8.888;2022-12-08T17:11:04;3.50;96.60
7708;DHT22;3896;48.758;8.888;2022-12-08T17:13:36;3.50;96.80
7708;DHT22;3896;48.758;8.888;2022-12-08T17:16:02;3.50;97.00
7708;DHT22;3896;48.758;8.888;2022-12-08T17:18:31;3.50;97.10
7708;DHT22;3896;48.758;8.888;2022-12-08T17:20:57;3.40;97.30
7708;DHT22;3896;48.758;8.888;2022-12-08T17:23:22;3.40;97.40
7708;DHT22;3896;48.758;8.888;2022-12-08T17:26:01;3.40;97.60
7708;DHT22;3896;48.758;8.888;2022-12-08T17:28:27;3.30;97.60
7708;DHT22;3896;48.758;8.888;2022-12-08T17:30:53;3.30;97.60
7708;DHT22;3896;48.758;8.888;2022-12-08T17:33:19;3.30;97.70
7708;DHT22;3896;48.758;8.888;2022-12-08T17:35:47;3.30;97.80
7708;DHT22;3896;48.758;8.888;2022-12-08T17:38:13;3.30;98.00
7708;DHT22;3896;48.758;8.888;2022-12-08T17:40:39;3.30;98.10
7708;DHT22;3896;48.758;8.888;2022-12-08T17:43:04;3.30;98.60
7708;DHT22;3896;48.758;8.888;2022-12-08T17:45:30;3.20;98.40
7708;DHT22;3896;48.758;8.888;2022-12-08T17:47:55;3.20;98.60
7708;DHT22;3896;48.758;8.888;2022-12-08T17:50:21;3.20;98.80
7708;DHT22;3896;48.758;8.888;2022-12-08T17:52:49;3.20;99.00
7708;DHT22;3896;48.758;8.888;2022-12-08T17:55:15;3.10;99.10
7708;DHT22;3896;48.758;8.888;2022-12-08T17:57:40;3.10;99.30
7708;DHT22;3896;48.758;8.888;2022-12-08T18:00:09;3.10;99.60
7708;DHT22;3896;48.758;8.888;2022-12-08T18:02:35;3.10;99.80
7708;DHT22;3896;48.758;8.888;2022-12-08T18:05:03;3.00;99.90
7708;DHT22;3896;48.758;8.888;2022-12-08T18:07:28;3.00;99.90
7708;DHT22;3896;48.758;8.888;2022-12-08T18:09:54;3.00;99.90
7708;DHT22;3896;48.758;8.888;2022-12-08T18:12:20;3.00;99.90
7708;DHT22;3896;48.758;8.888;2022-12-08T18:14:45;3.00;99.90
7708;DHT22;3896;48.758;8.888;2022-12-08T18:17:11;3.00;99.90
7708;DHT22;3896;48.758;8.888;2022-12-08T18:19:37;2.90;99.90